sensor_id;sensor_type;location;lat;lon;timestamp;P1;durP1;ratioP1;P2;durP2;ratioP2
61905;SDS011;47863;55.766;37.672;2022-07-09T00:00:14;6.70;;;3.80;;
61905;SDS011;47863;55.766;37.672;2022-07-09T00:02:39;12.10;;;4.30;;
61905;SDS011;47863;55.766;37.672;2022-07-09T00:05:05;13.13;;;4.68;;
61905;SDS011;47863;55.766;37.672;2022-07-09T00:07:31;11.88;;;4.22;;
61905;SDS011;47863;55.766;37.672;2022-07-09T00:09:56;9.82;;;4.00;;
61905;SDS011;47863;55.766;37.672;2022-07-09T00:12:22;12.45;;;4.40;;
61905;SDS011;47863;55.766;37.672;2022-07-09T00:14:48;14.30;;;4.55;;
61905;SDS011;47863;55.766;37.672;2022-07-09T00:17:15;10.48;;;4.45;;
61905;SDS011;47863;55.766;37.672;2022-07-09T00:19:41;13.10;;;4.65;;
61905;SDS011;47863;55.766;37.672;2022-07-09T00:22:07;11.88;;;3.97;;
61905;SDS011;47863;55.766;37.672;2022-07-09T00:24:32;10.98;;;4.35;;
61905;SDS011;47863;55.766;37.672;2022-07-09T00:26:58;12.05;;;4.30;;
61905;SDS011;47863;55.766;37.672;2022-07-09T00:29:23;11.23;;;4.25;;
61905;SDS011;47863;55.766;37.672;2022-07-09T00:31:49;10.50;;;4.78;;
61905;SDS011;47863;55.766;37.672;2022-07-09T00:34:14;17.27;;;4.72;;
61905;SDS011;47863;55.766;37.672;2022-07-09T00:36:40;13.43;;;5.32;;
61905;SDS011;47863;55.766;37.672;2022-07-09T00:39:06;13.57;;;5.35;;
61905;SDS011;47863;55.766;37.672;2022-07-09T00:41:31;15.07;;;5.47;;
61905;SDS011;47863;55.766;37.672;2022-07-09T00:43:57;12.43;;;5.07;;
61905;SDS011;47863;55.766;37.672;2022-07-09T00:46:22;23.50;;;5.72;;
61905;SDS011;47863;55.766;37.672;2022-07-09T00:48:48;21.20;;;6.00;;
61905;SDS011;47863;55.766;37.672;2022-07-09T00:51:14;14.70;;;5.68;;
61905;SDS011;47863;55.766;37.672;2022-07-09T00:53:42;20.58;;;6.85;;
61905;SDS011;47863;55.766;37.672;2022-07-09T00:56:10;18.55;;;6.50;;
61905;SDS011;47863;55.766;37.672;2022-07-09T00:58:37;19.27;;;7.65;;
61905;SDS011;47863;55.766;37.672;2022-07-09T01:01:04;22.05;;;6.47;;
61905;SDS011;47863;55.766;37.672;2022-07-09T01:03:31;20.98;;;6.47;;
61905;SDS011;47863;55.766;37.672;2022-07-09T01:05:57;17.25;;;6.28;;
61905;SDS011;47863;55.766;37.672;2022-07-09T01:08:23;19.65;;;5.80;;
61905;SDS011;47863;55.766;37.672;2022-07-09T01:10:51;14.73;;;5.75;;
61905;SDS011;47863;55.766;37.672;2022-07-09T01:13:17;13.50;;;6.63;;
61905;SDS011;47863;55.766;37.672;2022-07-09T01:15:43;20.48;;;7.10;;
61905;SDS011;47863;55.766;37.672;2022-07-09T01:18:11;18.27;;;6.47;;
61905;SDS011;47863;55.766;37.672;2022-07-09T01:20:38;17.35;;;6.38;;
61905;SDS011;47863;55.766;37.672;2022-07-09T01:23:04;16.92;;;5.95;;
61905;SDS011;47863;55.766;37.672;2022-07-09T01:25:39;23.73;;;6.60;;
61905;SDS011;47863;55.766;37.672;2022-07-09T01:28:06;14.73;;;6.60;;
61905;SDS011;47863;55.766;37.672;2022-07-09T01:30:35;19.83;;;5.72;;
61905;SDS011;47863;55.766;37.672;2022-07-09T01:33:03;13.20;;;6.00;;
61905;SDS011;47863;55.766;37.672;2022-07-09T01:35:29;18.15;;;6.18;;
61905;SDS011;47863;55.766;37.672;2022-07-09T01:37:54;27.15;;;6.85;;
61905;SDS011;47863;55.766;37.672;2022-07-09T01:40:20;12.23;;;6.43;;
61905;SDS011;47863;55.766;37.672;2022-07-09T01:42:46;24.13;;;6.60;;
61905;SDS011;47863;55.766;37.672;2022-07-09T01:45:13;19.77;;;6.70;;
61905;SDS011;47863;55.766;37.672;2022-07-09T01:47:39;15.65;;;6.00;;
61905;SDS011;47863;55.766;37.672;2022-07-09T01:50:05;22.15;;;5.97;;
61905;SDS011;47863;55.766;37.672;2022-07-09T01:52:31;17.35;;;6.88;;
61905;SDS011;47863;55.766;37.672;2022-07-09T01:54:57;21.45;;;6.35;;
61905;SDS011;47863;55.766;37.672;2022-07-09T01:57:23;18.70;;;6.65;;
61905;SDS011;47863;55.766;37.672;2022-07-09T01:59:48;18.05;;;6.97;;
61905;SDS011;47863;55.766;37.672;2022-07-09T02:02:14;15.05;;;6.65;;
61905;SDS011;47863;55.766;37.672;2022-07-09T02:04:39;20.48;;;6.40;;
61905;SDS011;47863;55.766;37.672;2022-07-09T02:07:05;21.52;;;7.07;;
61905;SDS011;47863;55.766;37.672;2022-07-09T02:09:30;19.70;;;6.55;;
61905;SDS011;47863;55.766;37.672;2022-07-09T02:11:56;16.52;;;6.18;;
61905;SDS011;47863;55.766;37.672;2022-07-09T02:14:22;22.67;;;7.15;;
61905;SDS011;47863;55.766;37.672;2022-07-09T02:16:47;18.92;;;7.00;;
61905;SDS011;47863;55.766;37.672;2022-07-09T02:19:14;20.83;;;6.30;;
61905;SDS011;47863;55.766;37.672;2022-07-09T02:21:40;19.27;;;6.70;;
61905;SDS011;47863;55.766;37.672;2022-07-09T02:24:06;24.83;;;6.90;;
61905;SDS011;47863;55.766;37.672;2022-07-09T02:26:31;14.85;;;7.25;;
61905;SDS011;47863;55.766;37.672;2022-07-09T02:28:57;21.35;;;7.72;;
61905;SDS011;47863;55.766;37.672;2022-07-09T02:31:24;19.83;;;7.85;;
61905;SDS011;47863;55.766;37.672;2022-07-09T02:33:50;14.63;;;7.47;;
61905;SDS011;47863;55.766;37.672;2022-07-09T02:36:16;20.35;;;7.88;;
61905;SDS011;47863;55.766;37.672;2022-07-09T02:38:42;16.85;;;8.10;;
61905;SDS011;47863;55.766;37.672;2022-07-09T02:41:08;20.02;;;8.30;;
61905;SDS011;47863;55.766;37.672;2022-07-09T02:43:33;16.67;;;8.30;;
61905;SDS011;47863;55.766;37.672;2022-07-09T02:45:59;20.35;;;8.57;;
61905;SDS011;47863;55.766;37.672;2022-07-09T02:48:25;24.20;;;8.50;;
61905;SDS011;47863;55.766;37.672;2022-07-09T02:50:50;20.10;;;8.05;;
61905;SDS011;47863;55.766;37.672;2022-07-09T02:53:16;18.98;;;8.75;;
61905;SDS011;47863;55.766;37.672;2022-07-09T02:55:41;20.42;;;8.23;;
61905;SDS011;47863;55.766;37.672;2022-07-09T02:58:07;17.52;;;8.18;;
61905;SDS011;47863;55.766;37.672;2022-07-09T03:00:33;22.08;;;8.23;;
61905;SDS011;47863;55.766;37.672;2022-07-09T03:02:58;24.27;;;8.05;;
61905;SDS011;47863;55.766;37.672;2022-07-09T03:05:24;30.42;;;8.82;;
61905;SDS011;47863;55.766;37.672;2022-07-09T03:07:49;23.45;;;8.88;;
61905;SDS011;47863;55.766;37.672;2022-07-09T03:10:15;31.88;;;8.45;;
61905;SDS011;47863;55.766;37.672;2022-07-09T03:12:41;27.88;;;8.45;;
61905;SDS011;47863;55.766;37.672;2022-07-09T03:15:09;18.67;;;8.48;;
61905;SDS011;47863;55.766;37.672;2022-07-09T03:17:38;19.90;;;9.00;;
61905;SDS011;47863;55.766;37.672;2022-07-09T03:20:04;16.98;;;8.95;;
61905;SDS011;47863;55.766;37.672;2022-07-09T03:22:30;13.70;;;7.55;;
61905;SDS011;47863;55.766;37.672;2022-07-09T03:24:55;16.25;;;8.75;;
61905;SDS011;47863;55.766;37.672;2022-07-09T03:27:21;14.68;;;8.80;;
61905;SDS011;47863;55.766;37.672;2022-07-09T03:29:47;17.23;;;8.07;;
61905;SDS011;47863;55.766;37.672;2022-07-09T03:32:13;14.20;;;7.38;;
61905;SDS011;47863;55.766;37.672;2022-07-09T03:34:39;14.15;;;8.35;;
61905;SDS011;47863;55.766;37.672;2022-07-09T03:37:04;19.13;;;8.23;;
61905;SDS011;47863;55.766;37.672;2022-07-09T03:39:30;15.05;;;8.32;;
61905;SDS011;47863;55.766;37.672;2022-07-09T03:41:56;12.07;;;6.85;;
61905;SDS011;47863;55.766;37.672;2022-07-09T03:44:21;14.60;;;7.93;;
61905;SDS011;47863;55.766;37.672;2022-07-09T03:46:47;22.88;;;7.72;;
61905;SDS011;47863;55.766;37.672;2022-07-09T03:49:13;23.48;;;7.60;;
61905;SDS011;47863;55.766;37.672;2022-07-09T03:51:38;24.20;;;8.25;;
61905;SDS011;47863;55.766;37.672;2022-07-09T03:54:04;25.48;;;8.52;;
61905;SDS011;47863;55.766;37.672;2022-07-09T03:56:29;25.92;;;8.02;;
61905;SDS011;47863;55.766;37.672;2022-07-09T03:58:55;22.23;;;8.18;;
61905;SDS011;47863;55.766;37.672;2022-07-09T04:01:21;21.55;;;8.32;;
61905;SDS011;47863;55.766;37.672;2022-07-09T04:03:46;20.98;;;8.35;;
61905;SDS011;47863;55.766;37.672;2022-07-09T04:06:12;18.48;;;7.72;;
61905;SDS011;47863;55.766;37.672;2022-07-09T04:08:37;19.45;;;8.65;;
61905;SDS011;47863;55.766;37.672;2022-07-09T04:11:03;19.40;;;7.53;;
61905;SDS011;47863;55.766;37.672;2022-07-09T04:13:29;18.10;;;7.75;;
61905;SDS011;47863;55.766;37.672;2022-07-09T04:15:54;12.20;;;7.07;;
61905;SDS011;47863;55.766;37.672;2022-07-09T04:18:20;17.05;;;7.25;;
61905;SDS011;47863;55.766;37.672;2022-07-09T04:20:46;12.45;;;6.18;;
61905;SDS011;47863;55.766;37.672;2022-07-09T04:23:11;19.38;;;6.75;;
61905;SDS011;47863;55.766;37.672;2022-07-09T04:25:37;11.93;;;6.50;;
61905;SDS011;47863;55.766;37.672;2022-07-09T04:28:03;12.50;;;5.60;;
61905;SDS011;47863;55.766;37.672;2022-07-09T04:30:30;9.65;;;5.25;;
61905;SDS011;47863;55.766;37.672;2022-07-09T04:32:56;9.45;;;5.25;;
61905;SDS011;47863;55.766;37.672;2022-07-09T04:35:21;9.52;;;5.05;;
61905;SDS011;47863;55.766;37.672;2022-07-09T04:37:47;8.95;;;5.28;;
61905;SDS011;47863;55.766;37.672;2022-07-09T04:40:13;12.10;;;4.88;;
61905;SDS011;47863;55.766;37.672;2022-07-09T04:42:38;10.15;;;6.00;;
61905;SDS011;47863;55.766;37.672;2022-07-09T04:45:04;9.98;;;5.40;;
61905;SDS011;47863;55.766;37.672;2022-07-09T04:47:30;15.95;;;6.57;;
61905;SDS011;47863;55.766;37.672;2022-07-09T04:49:55;15.95;;;5.97;;
61905;SDS011;47863;55.766;37.672;2022-07-09T04:52:21;17.25;;;6.32;;
61905;SDS011;47863;55.766;37.672;2022-07-09T04:54:51;15.57;;;5.65;;
61905;SDS011;47863;55.766;37.672;2022-07-09T04:57:17;13.40;;;5.47;;
61905;SDS011;47863;55.766;37.672;2022-07-09T04:59:43;9.30;;;5.80;;
61905;SDS011;47863;55.766;37.672;2022-07-09T05:02:08;9.63;;;5.25;;
61905;SDS011;47863;55.766;37.672;2022-07-09T05:04:34;9.75;;;4.72;;
61905;SDS011;47863;55.766;37.672;2022-07-09T05:07:00;11.27;;;5.18;;
61905;SDS011;47863;55.766;37.672;2022-07-09T05:09:25;10.60;;;5.30;;
61905;SDS011;47863;55.766;37.672;2022-07-09T05:11:51;10.75;;;4.20;;
61905;SDS011;47863;55.766;37.672;2022-07-09T05:14:16;8.88;;;4.00;;
61905;SDS011;47863;55.766;37.672;2022-07-09T05:16:42;5.60;;;3.42;;
61905;SDS011;47863;55.766;37.672;2022-07-09T05:19:12;9.35;;;3.97;;
61905;SDS011;47863;55.766;37.672;2022-07-09T05:21:41;5.88;;;3.47;;
61905;SDS011;47863;55.766;37.672;2022-07-09T05:24:07;5.53;;;3.42;;
61905;SDS011;47863;55.766;37.672;2022-07-09T05:26:34;10.73;;;2.60;;
61905;SDS011;47863;55.766;37.672;2022-07-09T05:29:01;6.28;;;2.30;;
61905;SDS011;47863;55.766;37.672;2022-07-09T05:31:27;15.20;;;4.63;;
61905;SDS011;47863;55.766;37.672;2022-07-09T05:33:53;6.15;;;2.55;;
61905;SDS011;47863;55.766;37.672;2022-07-09T05:36:18;3.25;;;2.00;;
61905;SDS011;47863;55.766;37.672;2022-07-09T05:38:44;6.80;;;1.85;;
61905;SDS011;47863;55.766;37.672;2022-07-09T05:41:12;5.20;;;2.13;;
61905;SDS011;47863;55.766;37.672;2022-07-09T05:43:39;1.92;;;1.50;;
61905;SDS011;47863;55.766;37.672;2022-07-09T05:46:05;2.70;;;1.30;;
61905;SDS011;47863;55.766;37.672;2022-07-09T05:48:30;2.55;;;1.83;;
61905;SDS011;47863;55.766;37.672;2022-07-09T05:50:56;2.25;;;1.50;;
61905;SDS011;47863;55.766;37.672;2022-07-09T05:53:22;4.95;;;1.70;;
61905;SDS011;47863;55.766;37.672;2022-07-09T05:55:47;2.53;;;1.58;;
61905;SDS011;47863;55.766;37.672;2022-07-09T05:58:13;3.38;;;1.60;;
61905;SDS011;47863;55.766;37.672;2022-07-09T06:00:40;4.47;;;1.42;;
61905;SDS011;47863;55.766;37.672;2022-07-09T06:03:05;2.45;;;1.55;;
61905;SDS011;47863;55.766;37.672;2022-07-09T06:05:31;3.55;;;1.98;;
61905;SDS011;47863;55.766;37.672;2022-07-09T06:07:56;3.97;;;1.77;;
61905;SDS011;47863;55.766;37.672;2022-07-09T06:10:22;4.65;;;1.50;;
61905;SDS011;47863;55.766;37.672;2022-07-09T06:12:47;4.38;;;1.77;;
61905;SDS011;47863;55.766;37.672;2022-07-09T06:15:13;4.38;;;1.98;;
61905;SDS011;47863;55.766;37.672;2022-07-09T06:17:39;5.68;;;1.83;;
61905;SDS011;47863;55.766;37.672;2022-07-09T06:20:05;2.08;;;1.58;;
61905;SDS011;47863;55.766;37.672;2022-07-09T06:22:33;4.25;;;1.70;;
61905;SDS011;47863;55.766;37.672;2022-07-09T06:24:58;23.38;;;7.15;;
61905;SDS011;47863;55.766;37.672;2022-07-09T06:27:24;4.07;;;2.17;;
61905;SDS011;47863;55.766;37.672;2022-07-09T06:29:50;7.55;;;2.45;;
61905;SDS011;47863;55.766;37.672;2022-07-09T06:32:15;4.18;;;2.03;;
61905;SDS011;47863;55.766;37.672;2022-07-09T06:34:41;4.57;;;1.95;;
61905;SDS011;47863;55.766;37.672;2022-07-09T06:37:07;5.90;;;2.03;;
61905;SDS011;47863;55.766;37.672;2022-07-09T06:39:33;5.20;;;2.17;;
61905;SDS011;47863;55.766;37.672;2022-07-09T06:42:15;18.75;;;13.48;;
61905;SDS011;47863;55.766;37.672;2022-07-09T06:44:43;5.80;;;3.50;;
61905;SDS011;47863;55.766;37.672;2022-07-09T06:47:09;5.85;;;1.88;;
61905;SDS011;47863;55.766;37.672;2022-07-09T06:49:35;6.65;;;1.80;;
61905;SDS011;47863;55.766;37.672;2022-07-09T06:52:01;6.72;;;1.83;;
61905;SDS011;47863;55.766;37.672;2022-07-09T06:54:27;6.40;;;2.25;;
61905;SDS011;47863;55.766;37.672;2022-07-09T06:56:53;2.88;;;1.60;;
61905;SDS011;47863;55.766;37.672;2022-07-09T06:59:21;5.50;;;1.85;;
61905;SDS011;47863;55.766;37.672;2022-07-09T07:01:48;3.80;;;1.52;;
61905;SDS011;47863;55.766;37.672;2022-07-09T07:04:14;3.60;;;1.30;;
61905;SDS011;47863;55.766;37.672;2022-07-09T07:06:40;5.43;;;1.73;;
61905;SDS011;47863;55.766;37.672;2022-07-09T07:09:06;2.88;;;1.70;;
61905;SDS011;47863;55.766;37.672;2022-07-09T07:11:32;7.88;;;2.05;;
61905;SDS011;47863;55.766;37.672;2022-07-09T07:13:58;3.17;;;1.50;;
61905;SDS011;47863;55.766;37.672;2022-07-09T07:16:23;3.22;;;1.58;;
61905;SDS011;47863;55.766;37.672;2022-07-09T07:18:49;4.03;;;1.35;;
61905;SDS011;47863;55.766;37.672;2022-07-09T07:21:15;6.72;;;1.48;;
61905;SDS011;47863;55.766;37.672;2022-07-09T07:23:40;5.00;;;1.52;;
61905;SDS011;47863;55.766;37.672;2022-07-09T07:26:06;2.90;;;1.80;;
61905;SDS011;47863;55.766;37.672;2022-07-09T07:28:33;2.72;;;1.70;;
61905;SDS011;47863;55.766;37.672;2022-07-09T07:30:59;3.15;;;1.65;;
61905;SDS011;47863;55.766;37.672;2022-07-09T07:33:24;4.40;;;1.70;;
61905;SDS011;47863;55.766;37.672;2022-07-09T07:35:50;3.15;;;1.60;;
61905;SDS011;47863;55.766;37.672;2022-07-09T07:38:16;11.27;;;4.97;;
61905;SDS011;47863;55.766;37.672;2022-07-09T07:40:41;3.67;;;2.10;;
61905;SDS011;47863;55.766;37.672;2022-07-09T07:43:09;5.72;;;2.08;;
61905;SDS011;47863;55.766;37.672;2022-07-09T07:45:36;5.25;;;2.35;;
61905;SDS011;47863;55.766;37.672;2022-07-09T07:48:02;5.85;;;1.85;;
61905;SDS011;47863;55.766;37.672;2022-07-09T07:50:28;3.15;;;1.70;;
61905;SDS011;47863;55.766;37.672;2022-07-09T07:52:54;4.38;;;1.55;;
61905;SDS011;47863;55.766;37.672;2022-07-09T07:55:19;5.00;;;2.50;;
61905;SDS011;47863;55.766;37.672;2022-07-09T07:57:45;3.15;;;1.70;;
61905;SDS011;47863;55.766;37.672;2022-07-09T08:00:11;3.63;;;1.58;;
61905;SDS011;47863;55.766;37.672;2022-07-09T08:02:37;2.65;;;1.50;;
61905;SDS011;47863;55.766;37.672;2022-07-09T08:05:02;6.43;;;2.17;;
61905;SDS011;47863;55.766;37.672;2022-07-09T08:07:29;6.82;;;2.40;;
61905;SDS011;47863;55.766;37.672;2022-07-09T08:09:54;3.63;;;2.33;;
61905;SDS011;47863;55.766;37.672;2022-07-09T08:12:20;6.72;;;2.83;;
61905;SDS011;47863;55.766;37.672;2022-07-09T08:14:45;3.53;;;1.98;;
61905;SDS011;47863;55.766;37.672;2022-07-09T08:17:11;3.80;;;2.20;;
61905;SDS011;47863;55.766;37.672;2022-07-09T08:19:36;6.50;;;2.45;;
61905;SDS011;47863;55.766;37.672;2022-07-09T08:22:02;5.55;;;2.38;;
61905;SDS011;47863;55.766;37.672;2022-07-09T08:24:28;4.78;;;2.42;;
61905;SDS011;47863;55.766;37.672;2022-07-09T08:26:54;4.30;;;2.30;;
61905;SDS011;47863;55.766;37.672;2022-07-09T08:29:19;5.80;;;2.15;;
61905;SDS011;47863;55.766;37.672;2022-07-09T08:31:45;5.72;;;2.42;;
61905;SDS011;47863;55.766;37.672;2022-07-09T08:34:12;6.38;;;2.20;;
61905;SDS011;47863;55.766;37.672;2022-07-09T08:36:37;4.00;;;2.00;;
61905;SDS011;47863;55.766;37.672;2022-07-09T08:39:03;4.35;;;2.63;;
61905;SDS011;47863;55.766;37.672;2022-07-09T08:41:29;4.05;;;2.22;;
61905;SDS011;47863;55.766;37.672;2022-07-09T08:43:54;5.28;;;2.30;;
61905;SDS011;47863;55.766;37.672;2022-07-09T08:46:20;6.55;;;2.53;;
61905;SDS011;47863;55.766;37.672;2022-07-09T08:48:46;5.35;;;2.15;;
61905;SDS011;47863;55.766;37.672;2022-07-09T08:51:12;5.28;;;2.08;;
61905;SDS011;47863;55.766;37.672;2022-07-09T08:53:41;3.85;;;2.03;;
61905;SDS011;47863;55.766;37.672;2022-07-09T08:56:08;4.10;;;1.98;;
61905;SDS011;47863;55.766;37.672;2022-07-09T08:58:34;3.53;;;1.85;;
61905;SDS011;47863;55.766;37.672;2022-07-09T09:01:00;7.20;;;2.15;;
61905;SDS011;47863;55.766;37.672;2022-07-09T09:03:26;4.75;;;2.22;;
61905;SDS011;47863;55.766;37.672;2022-07-09T09:06:07;3.55;;;1.88;;
61905;SDS011;47863;55.766;37.672;2022-07-09T09:11:01;7.32;;;1.83;;
61905;SDS011;47863;55.766;37.672;2022-07-09T09:13:41;6.63;;;1.77;;
61905;SDS011;47863;55.766;37.672;2022-07-09T09:16:10;7.97;;;2.00;;
61905;SDS011;47863;55.766;37.672;2022-07-09T09:18:40;2.63;;;1.83;;
61905;SDS011;47863;55.766;37.672;2022-07-09T09:21:07;6.35;;;2.10;;
61905;SDS011;47863;55.766;37.672;2022-07-09T09:23:43;3.05;;;1.98;;
61905;SDS011;47863;55.766;37.672;2022-07-09T09:26:15;5.93;;;2.35;;
61905;SDS011;47863;55.766;37.672;2022-07-09T09:28:55;4.45;;;2.20;;
61905;SDS011;47863;55.766;37.672;2022-07-09T09:33:55;5.43;;;2.60;;
61905;SDS011;47863;55.766;37.672;2022-07-09T09:36:30;4.95;;;2.47;;
61905;SDS011;47863;55.766;37.672;2022-07-09T09:39:13;5.07;;;2.53;;
61905;SDS011;47863;55.766;37.672;2022-07-09T09:41:45;7.13;;;2.60;;
61905;SDS011;47863;55.766;37.672;2022-07-09T09:44:14;6.75;;;2.70;;
61905;SDS011;47863;55.766;37.672;2022-07-09T09:46:42;4.60;;;2.65;;
61905;SDS011;47863;55.766;37.672;2022-07-09T09:49:08;3.38;;;2.13;;
61905;SDS011;47863;55.766;37.672;2022-07-09T09:52:00;6.68;;;2.65;;
61905;SDS011;47863;55.766;37.672;2022-07-09T09:56:56;6.38;;;2.53;;
61905;SDS011;47863;55.766;37.672;2022-07-09T09:59:23;7.13;;;2.33;;
61905;SDS011;47863;55.766;37.672;2022-07-09T10:01:50;9.40;;;3.60;;
61905;SDS011;47863;55.766;37.672;2022-07-09T10:04:15;7.68;;;3.20;;
61905;SDS011;47863;55.766;37.672;2022-07-09T10:06:41;7.25;;;3.20;;
61905;SDS011;47863;55.766;37.672;2022-07-09T10:09:07;8.35;;;2.72;;
61905;SDS011;47863;55.766;37.672;2022-07-09T10:16:53;8.13;;;3.95;;
61905;SDS011;47863;55.766;37.672;2022-07-09T10:19:29;6.78;;;4.05;;
61905;SDS011;47863;55.766;37.672;2022-07-09T10:21:56;11.05;;;4.93;;
61905;SDS011;47863;55.766;37.672;2022-07-09T10:24:30;8.48;;;4.10;;
61905;SDS011;47863;55.766;37.672;2022-07-09T10:27:09;9.82;;;5.50;;
61905;SDS011;47863;55.766;37.672;2022-07-09T10:29:37;18.58;;;5.30;;
61905;SDS011;47863;55.766;37.672;2022-07-09T10:32:30;10.40;;;5.30;;
61905;SDS011;47863;55.766;37.672;2022-07-09T10:34:57;12.48;;;4.97;;
61905;SDS011;47863;55.766;37.672;2022-07-09T10:37:31;38.13;;;22.52;;
61905;SDS011;47863;55.766;37.672;2022-07-09T10:40:08;18.70;;;10.10;;
61905;SDS011;47863;55.766;37.672;2022-07-09T10:42:34;11.15;;;5.70;;
61905;SDS011;47863;55.766;37.672;2022-07-09T10:45:00;13.07;;;5.80;;
61905;SDS011;47863;55.766;37.672;2022-07-09T10:47:36;18.27;;;5.70;;
61905;SDS011;47863;55.766;37.672;2022-07-09T10:50:05;11.60;;;5.75;;
61905;SDS011;47863;55.766;37.672;2022-07-09T10:52:31;8.85;;;4.75;;
61905;SDS011;47863;55.766;37.672;2022-07-09T10:54:58;8.80;;;4.50;;
61905;SDS011;47863;55.766;37.672;2022-07-09T10:57:24;6.20;;;2.95;;
61905;SDS011;47863;55.766;37.672;2022-07-09T10:59:49;7.10;;;2.40;;
61905;SDS011;47863;55.766;37.672;2022-07-09T11:02:18;2.53;;;2.00;;
61905;SDS011;47863;55.766;37.672;2022-07-09T11:04:48;5.22;;;2.00;;
61905;SDS011;47863;55.766;37.672;2022-07-09T11:07:22;5.10;;;1.65;;
61905;SDS011;47863;55.766;37.672;2022-07-09T11:09:49;4.10;;;3.03;;
61905;SDS011;47863;55.766;37.672;2022-07-09T11:12:16;5.10;;;2.08;;
61905;SDS011;47863;55.766;37.672;2022-07-09T11:14:49;5.45;;;2.20;;
61905;SDS011;47863;55.766;37.672;2022-07-09T11:17:16;2.70;;;1.83;;
61905;SDS011;47863;55.766;37.672;2022-07-09T11:19:44;3.50;;;2.33;;
61905;SDS011;47863;55.766;37.672;2022-07-09T11:22:10;6.22;;;4.18;;
61905;SDS011;47863;55.766;37.672;2022-07-09T11:24:36;4.82;;;2.90;;
61905;SDS011;47863;55.766;37.672;2022-07-09T11:27:02;3.78;;;2.72;;
61905;SDS011;47863;55.766;37.672;2022-07-09T11:29:29;4.38;;;2.90;;
61905;SDS011;47863;55.766;37.672;2022-07-09T11:31:55;5.47;;;3.13;;
61905;SDS011;47863;55.766;37.672;2022-07-09T11:34:21;7.13;;;3.35;;
61905;SDS011;47863;55.766;37.672;2022-07-09T11:36:48;4.95;;;3.40;;
61905;SDS011;47863;55.766;37.672;2022-07-09T11:41:55;4.78;;;2.88;;
61905;SDS011;47863;55.766;37.672;2022-07-09T11:44:32;5.68;;;3.42;;
61905;SDS011;47863;55.766;37.672;2022-07-09T11:47:11;6.43;;;3.40;;
61905;SDS011;47863;55.766;37.672;2022-07-09T11:55:03;5.60;;;3.50;;
61905;SDS011;47863;55.766;37.672;2022-07-09T11:57:31;6.53;;;3.92;;
61905;SDS011;47863;55.766;37.672;2022-07-09T11:59:58;7.63;;;3.70;;
61905;SDS011;47863;55.766;37.672;2022-07-09T12:02:25;9.10;;;4.00;;
61905;SDS011;47863;55.766;37.672;2022-07-09T12:04:54;16.38;;;10.98;;
61905;SDS011;47863;55.766;37.672;2022-07-09T12:07:19;8.07;;;3.45;;
61905;SDS011;47863;55.766;37.672;2022-07-09T12:09:45;7.68;;;3.30;;
61905;SDS011;47863;55.766;37.672;2022-07-09T12:12:11;5.32;;;3.17;;
61905;SDS011;47863;55.766;37.672;2022-07-09T12:14:36;3.53;;;3.08;;
61905;SDS011;47863;55.766;37.672;2022-07-09T12:17:02;9.35;;;3.50;;
61905;SDS011;47863;55.766;37.672;2022-07-09T12:19:29;6.95;;;3.40;;
61905;SDS011;47863;55.766;37.672;2022-07-09T12:21:55;5.28;;;2.97;;
61905;SDS011;47863;55.766;37.672;2022-07-09T12:24:21;2.90;;;2.50;;
61905;SDS011;47863;55.766;37.672;2022-07-09T12:26:46;3.80;;;2.47;;
61905;SDS011;47863;55.766;37.672;2022-07-09T12:29:12;4.45;;;2.15;;
61905;SDS011;47863;55.766;37.672;2022-07-09T12:31:37;3.50;;;1.98;;
61905;SDS011;47863;55.766;37.672;2022-07-09T12:34:03;2.65;;;2.30;;
61905;SDS011;47863;55.766;37.672;2022-07-09T12:36:30;6.72;;;2.53;;
61905;SDS011;47863;55.766;37.672;2022-07-09T12:38:56;6.22;;;3.10;;
61905;SDS011;47863;55.766;37.672;2022-07-09T12:41:22;5.63;;;2.80;;
61905;SDS011;47863;55.766;37.672;2022-07-09T12:43:47;8.55;;;2.85;;
61905;SDS011;47863;55.766;37.672;2022-07-09T12:46:13;4.22;;;2.83;;
61905;SDS011;47863;55.766;37.672;2022-07-09T12:48:38;4.65;;;2.78;;
61905;SDS011;47863;55.766;37.672;2022-07-09T12:51:04;3.42;;;3.03;;
61905;SDS011;47863;55.766;37.672;2022-07-09T12:53:30;4.15;;;3.00;;
61905;SDS011;47863;55.766;37.672;2022-07-09T12:55:55;4.90;;;2.88;;
61905;SDS011;47863;55.766;37.672;2022-07-09T12:58:21;3.53;;;2.45;;
61905;SDS011;47863;55.766;37.672;2022-07-09T13:00:46;4.68;;;2.80;;
61905;SDS011;47863;55.766;37.672;2022-07-09T13:03:12;4.25;;;2.88;;
61905;SDS011;47863;55.766;37.672;2022-07-09T13:05:37;4.55;;;2.72;;
61905;SDS011;47863;55.766;37.672;2022-07-09T13:08:03;4.78;;;2.72;;
61905;SDS011;47863;55.766;37.672;2022-07-09T13:10:29;10.30;;;6.13;;
61905;SDS011;47863;55.766;37.672;2022-07-09T13:12:55;3.40;;;3.10;;
61905;SDS011;47863;55.766;37.672;2022-07-09T13:15:20;7.18;;;3.55;;
61905;SDS011;47863;55.766;37.672;2022-07-09T13:17:48;5.38;;;3.70;;
61905;SDS011;47863;55.766;37.672;2022-07-09T13:20:13;7.32;;;3.50;;
61905;SDS011;47863;55.766;37.672;2022-07-09T13:22:39;3.53;;;2.88;;
61905;SDS011;47863;55.766;37.672;2022-07-09T13:25:05;5.00;;;2.90;;
61905;SDS011;47863;55.766;37.672;2022-07-09T13:27:31;4.88;;;2.72;;
61905;SDS011;47863;55.766;37.672;2022-07-09T13:29:57;5.15;;;3.05;;
61905;SDS011;47863;55.766;37.672;2022-07-09T13:32:23;3.83;;;2.83;;
61905;SDS011;47863;55.766;37.672;2022-07-09T13:34:49;3.60;;;2.88;;
61905;SDS011;47863;55.766;37.672;2022-07-09T13:37:16;6.75;;;4.22;;
61905;SDS011;47863;55.766;37.672;2022-07-09T13:39:42;5.20;;;3.42;;
61905;SDS011;47863;55.766;37.672;2022-07-09T13:42:07;8.73;;;3.28;;
61905;SDS011;47863;55.766;37.672;2022-07-09T13:44:33;3.83;;;3.15;;
61905;SDS011;47863;55.766;37.672;2022-07-09T13:46:59;3.90;;;2.95;;
61905;SDS011;47863;55.766;37.672;2022-07-09T13:49:24;3.13;;;2.42;;
61905;SDS011;47863;55.766;37.672;2022-07-09T13:51:50;8.30;;;2.70;;
61905;SDS011;47863;55.766;37.672;2022-07-09T13:54:16;5.05;;;2.50;;
61905;SDS011;47863;55.766;37.672;2022-07-09T13:56:41;3.67;;;2.42;;
61905;SDS011;47863;55.766;37.672;2022-07-09T13:59:07;4.75;;;3.03;;
61905;SDS011;47863;55.766;37.672;2022-07-09T14:01:32;3.63;;;2.78;;
61905;SDS011;47863;55.766;37.672;2022-07-09T14:03:58;4.13;;;2.60;;
61905;SDS011;47863;55.766;37.672;2022-07-09T14:06:24;6.05;;;2.95;;
61905;SDS011;47863;55.766;37.672;2022-07-09T14:08:50;3.78;;;2.70;;
61905;SDS011;47863;55.766;37.672;2022-07-09T14:11:16;8.32;;;4.50;;
61905;SDS011;47863;55.766;37.672;2022-07-09T14:13:42;5.72;;;3.38;;
61905;SDS011;47863;55.766;37.672;2022-07-09T14:16:09;8.45;;;3.97;;
61905;SDS011;47863;55.766;37.672;2022-07-09T14:18:34;8.13;;;4.63;;
61905;SDS011;47863;55.766;37.672;2022-07-09T14:21:00;4.50;;;3.33;;
61905;SDS011;47863;55.766;37.672;2022-07-09T14:23:26;9.73;;;3.25;;
61905;SDS011;47863;55.766;37.672;2022-07-09T14:25:51;4.80;;;3.38;;
61905;SDS011;47863;55.766;37.672;2022-07-09T14:28:17;4.60;;;3.40;;
61905;SDS011;47863;55.766;37.672;2022-07-09T14:30:43;5.32;;;4.00;;
61905;SDS011;47863;55.766;37.672;2022-07-09T14:33:08;4.47;;;3.40;;
61905;SDS011;47863;55.766;37.672;2022-07-09T14:35:34;6.05;;;3.17;;
61905;SDS011;47863;55.766;37.672;2022-07-09T14:38:00;6.47;;;3.42;;
61905;SDS011;47863;55.766;37.672;2022-07-09T14:40:25;18.02;;;11.95;;
61905;SDS011;47863;55.766;37.672;2022-07-09T14:42:51;7.95;;;3.95;;
61905;SDS011;47863;55.766;37.672;2022-07-09T14:45:16;6.72;;;3.80;;